Portada
METAR-TAF:

METAR-TAF

Aeropuertos :

Aeropuerto de Córdoba

Córdoba, España

latitud: 37-51N, longitud: 004-51W, altitud: 90 m

Observación

El informe se hizo hace 29 minutos, a las 20:00 UTC
Viento 4 kt del este
Temperatura 13°C
Humedad 88%
Presión 1016 hPa
Visibilidad 10 km o más
sin nubes por debajo de 1500 m y sin presencia de cumulonimbus.

METAR: LEBA 292000Z AUTO 08004KT CAVOK 13/11 Q1016

Hora: 21:29 (20:29 UTC)

Pronóstico

El informe se hizo hace 6 horas y 29 minutos, a las 14:00 UTC
Pronóstico válido del 29 a las 15 UTC al 30 a las 15 UTC
Viento 8 kt del este
Visibilidad 10 km o más
Nubes dispersas a una altura de 4000 ft
Probabilidad 30% :
Temporalmente
del 29 a las 15 UTC al 29 a las 18 UTC
Visibilidad: 4000 m
Nubes dispersas a una altura de 1800 ft, Cumulus congestus.
Cielo nuboso a una altura de 2000 ft
chaparrones de lluvia

TAF: LEBA 291400Z 2915/3015 08008KT 9999 SCT040 TX19/3015Z TN08/3007Z PROB30 TEMPO 2915/2918 4000 SHRA SCT018TCU BKN020

Observaciones y pronósticos meteorológicos de más de 4000 aeropuertos (mensajes METAR y TAF).

Los puntos amarillos y rojos representan las estaciones disponibles.

Ponga el ratón en el punto deseado para ver el nombre de la estación.

Haga clic para ver las observaciones y los pronósticos meteorológicos.

Para cambiar el mapa : haga clic en los botones verdes con una cruz de color negro para hacer un zoom, en el botón verde con un guión para alejar o en las flechas verdes para mapas adyacentes.


METAR-TAF: